sensor_id;sensor_type;location;lat;lon;timestamp;pressure;altitude;pressure_sealevel;temperature;humidity
60611;BME280;46439;51.164;13.572;2024-03-29T00:01:19;98683.39;;;10.48;100.00
60611;BME280;46439;51.164;13.572;2024-03-29T00:03:47;98686.67;;;10.46;100.00
60611;BME280;46439;51.164;13.572;2024-03-29T00:06:15;98690.83;;;10.43;100.00
60611;BME280;46439;51.164;13.572;2024-03-29T00:08:43;98694.96;;;10.46;100.00
60611;BME280;46439;51.164;13.572;2024-03-29T00:11:11;98694.88;;;10.52;100.00
60611;BME280;46439;51.164;13.572;2024-03-29T00:13:39;98691.90;;;10.51;100.00
60611;BME280;46439;51.164;13.572;2024-03-29T00:16:07;98693.58;;;10.56;100.00
60611;BME280;46439;51.164;13.572;2024-03-29T00:18:35;98694.66;;;10.59;100.00
60611;BME280;46439;51.164;13.572;2024-03-29T00:21:23;98704.71;;;10.63;100.00
60611;BME280;46439;51.164;13.572;2024-03-29T00:23:52;98706.24;;;10.65;100.00
60611;BME280;46439;51.164;13.572;2024-03-29T00:26:20;98703.34;;;10.64;100.00
60611;BME280;46439;51.164;13.572;2024-03-29T00:28:51;98714.05;;;10.63;100.00
60611;BME280;46439;51.164;13.572;2024-03-29T00:31:19;98710.55;;;10.61;100.00
60611;BME280;46439;51.164;13.572;2024-03-29T00:33:50;98712.27;;;10.55;100.00
60611;BME280;46439;51.164;13.572;2024-03-29T00:36:18;98708.54;;;10.52;100.00
60611;BME280;46439;51.164;13.572;2024-03-29T00:38:47;98710.25;;;10.50;100.00
60611;BME280;46439;51.164;13.572;2024-03-29T00:41:16;98710.36;;;10.54;100.00
60611;BME280;46439;51.164;13.572;2024-03-29T00:43:46;98715.83;;;10.64;100.00
60611;BME280;46439;51.164;13.572;2024-03-29T00:46:14;98723.71;;;10.68;100.00
60611;BME280;46439;51.164;13.572;2024-03-29T00:48:42;98722.48;;;10.67;100.00
60611;BME280;46439;51.164;13.572;2024-03-29T00:51:12;98725.49;;;10.67;100.00
60611;BME280;46439;51.164;13.572;2024-03-29T00:53:41;98730.10;;;10.70;100.00
60611;BME280;46439;51.164;13.572;2024-03-29T00:56:09;98734.77;;;10.71;100.00
60611;BME280;46439;51.164;13.572;2024-03-29T00:58:36;98739.41;;;10.69;100.00
60611;BME280;46439;51.164;13.572;2024-03-29T01:01:05;98743.52;;;10.71;100.00
60611;BME280;46439;51.164;13.572;2024-03-29T01:03:33;98749.17;;;10.76;100.00
60611;BME280;46439;51.164;13.572;2024-03-29T01:06:01;98751.23;;;10.78;100.00
60611;BME280;46439;51.164;13.572;2024-03-29T01:08:29;98747.13;;;10.79;100.00
60611;BME280;46439;51.164;13.572;2024-03-29T01:10:58;98744.66;;;10.81;100.00
60611;BME280;46439;51.164;13.572;2024-03-29T01:13:32;98747.39;;;10.89;100.00
60611;BME280;46439;51.164;13.572;2024-03-29T01:16:00;98752.35;;;10.80;100.00
60611;BME280;46439;51.164;13.572;2024-03-29T01:18:28;98757.09;;;10.77;100.00
60611;BME280;46439;51.164;13.572;2024-03-29T01:20:56;98766.86;;;10.76;100.00
60611;BME280;46439;51.164;13.572;2024-03-29T01:23:24;98763.77;;;10.74;100.00
60611;BME280;46439;51.164;13.572;2024-03-29T01:25:52;98763.90;;;10.75;100.00
60611;BME280;46439;51.164;13.572;2024-03-29T01:28:20;98761.00;;;10.73;100.00
60611;BME280;46439;51.164;13.572;2024-03-29T01:30:53;98762.86;;;10.72;100.00
60611;BME280;46439;51.164;13.572;2024-03-29T01:33:22;98759.70;;;10.71;100.00
60611;BME280;46439;51.164;13.572;2024-03-29T01:35:50;98755.98;;;10.63;100.00
60611;BME280;46439;51.164;13.572;2024-03-29T01:38:18;98755.15;;;10.55;100.00
60611;BME280;46439;51.164;13.572;2024-03-29T01:40:46;98751.26;;;10.48;100.00
60611;BME280;46439;51.164;13.572;2024-03-29T01:43:14;98752.05;;;10.45;100.00
60611;BME280;46439;51.164;13.572;2024-03-29T01:45:43;98754.16;;;10.47;100.00
60611;BME280;46439;51.164;13.572;2024-03-29T01:48:14;98756.23;;;10.50;100.00
60611;BME280;46439;51.164;13.572;2024-03-29T01:51:03;98759.89;;;10.58;100.00
60611;BME280;46439;51.164;13.572;2024-03-29T01:53:32;98761.75;;;10.64;100.00
60611;BME280;46439;51.164;13.572;2024-03-29T01:56:00;98760.39;;;10.65;100.00
60611;BME280;46439;51.164;13.572;2024-03-29T01:58:29;98753.20;;;10.63;100.00
60611;BME280;46439;51.164;13.572;2024-03-29T02:00:59;98749.27;;;10.63;100.00
60611;BME280;46439;51.164;13.572;2024-03-29T02:03:32;98740.03;;;10.68;100.00
60611;BME280;46439;51.164;13.572;2024-03-29T02:06:01;98739.12;;;10.64;100.00
60611;BME280;46439;51.164;13.572;2024-03-29T02:08:32;98747.64;;;10.65;100.00
60611;BME280;46439;51.164;13.572;2024-03-29T02:11:02;98753.08;;;10.67;100.00
60611;BME280;46439;51.164;13.572;2024-03-29T02:13:31;98755.85;;;10.73;100.00
60611;BME280;46439;51.164;13.572;2024-03-29T02:15:59;98751.98;;;10.79;100.00
60611;BME280;46439;51.164;13.572;2024-03-29T02:18:27;98753.22;;;10.83;100.00
60611;BME280;46439;51.164;13.572;2024-03-29T02:20:55;98756.46;;;10.86;100.00
60611;BME280;46439;51.164;13.572;2024-03-29T02:23:27;98745.55;;;10.87;100.00
60611;BME280;46439;51.164;13.572;2024-03-29T02:25:57;98736.69;;;10.87;100.00
60611;BME280;46439;51.164;13.572;2024-03-29T02:28:25;98734.19;;;10.87;100.00
60611;BME280;46439;51.164;13.572;2024-03-29T02:30:53;98731.79;;;10.88;100.00
60611;BME280;46439;51.164;13.572;2024-03-29T02:33:23;98730.64;;;11.01;100.00
60611;BME280;46439;51.164;13.572;2024-03-29T02:35:51;98729.99;;;11.05;100.00
60611;BME280;46439;51.164;13.572;2024-03-29T02:38:19;98743.45;;;11.08;100.00
60611;BME280;46439;51.164;13.572;2024-03-29T02:40:50;98740.89;;;11.05;100.00
60611;BME280;46439;51.164;13.572;2024-03-29T02:43:23;98741.45;;;10.91;100.00
60611;BME280;46439;51.164;13.572;2024-03-29T02:45:51;98737.85;;;10.83;100.00
60611;BME280;46439;51.164;13.572;2024-03-29T02:48:19;98743.52;;;10.74;100.00
60611;BME280;46439;51.164;13.572;2024-03-29T02:50:47;98745.85;;;10.62;100.00
60611;BME280;46439;51.164;13.572;2024-03-29T02:53:15;98736.05;;;10.57;100.00
60611;BME280;46439;51.164;13.572;2024-03-29T02:55:43;98745.20;;;10.51;100.00
60611;BME280;46439;51.164;13.572;2024-03-29T02:58:11;98749.02;;;10.48;100.00
60611;BME280;46439;51.164;13.572;2024-03-29T03:00:39;98748.80;;;10.47;100.00
60611;BME280;46439;51.164;13.572;2024-03-29T03:03:07;98750.05;;;10.43;100.00
60611;BME280;46439;51.164;13.572;2024-03-29T03:05:35;98753.13;;;10.40;100.00
60611;BME280;46439;51.164;13.572;2024-03-29T03:08:03;98745.98;;;10.39;100.00
60611;BME280;46439;51.164;13.572;2024-03-29T03:10:50;98749.80;;;10.42;100.00
60611;BME280;46439;51.164;13.572;2024-03-29T03:13:24;98751.96;;;10.39;100.00
60611;BME280;46439;51.164;13.572;2024-03-29T03:15:51;98755.70;;;10.37;100.00
60611;BME280;46439;51.164;13.572;2024-03-29T03:18:19;98757.18;;;10.36;100.00
60611;BME280;46439;51.164;13.572;2024-03-29T03:20:52;98768.44;;;10.37;100.00
60611;BME280;46439;51.164;13.572;2024-03-29T03:23:21;98772.50;;;10.40;100.00
60611;BME280;46439;51.164;13.572;2024-03-29T03:25:54;98766.70;;;10.43;100.00
60611;BME280;46439;51.164;13.572;2024-03-29T03:28:22;98758.56;;;10.46;100.00
60611;BME280;46439;51.164;13.572;2024-03-29T03:30:50;98763.13;;;10.43;100.00
60611;BME280;46439;51.164;13.572;2024-03-29T03:33:19;98765.40;;;10.42;100.00
60611;BME280;46439;51.164;13.572;2024-03-29T03:35:48;98760.52;;;10.43;100.00
60611;BME280;46439;51.164;13.572;2024-03-29T03:38:16;98756.20;;;10.41;100.00
60611;BME280;46439;51.164;13.572;2024-03-29T03:40:44;98752.55;;;10.38;100.00
60611;BME280;46439;51.164;13.572;2024-03-29T03:43:12;98734.90;;;10.34;100.00
60611;BME280;46439;51.164;13.572;2024-03-29T03:45:41;98732.38;;;10.31;100.00
60611;BME280;46439;51.164;13.572;2024-03-29T03:48:10;98738.95;;;10.31;100.00
60611;BME280;46439;51.164;13.572;2024-03-29T03:50:39;98742.38;;;10.34;100.00
60611;BME280;46439;51.164;13.572;2024-03-29T03:53:09;98745.91;;;10.39;100.00
60611;BME280;46439;51.164;13.572;2024-03-29T03:55:38;98753.66;;;10.40;100.00
60611;BME280;46439;51.164;13.572;2024-03-29T03:58:06;98754.28;;;10.42;100.00
60611;BME280;46439;51.164;13.572;2024-03-29T04:00:34;98752.05;;;10.44;100.00
60611;BME280;46439;51.164;13.572;2024-03-29T04:03:02;98743.53;;;10.44;100.00
60611;BME280;46439;51.164;13.572;2024-03-29T04:05:31;98742.70;;;10.43;100.00
60611;BME280;46439;51.164;13.572;2024-03-29T04:08:00;98737.69;;;10.44;100.00
60611;BME280;46439;51.164;13.572;2024-03-29T04:10:28;98730.71;;;10.43;100.00
60611;BME280;46439;51.164;13.572;2024-03-29T04:12:56;98732.75;;;10.38;100.00
60611;BME280;46439;51.164;13.572;2024-03-29T04:15:23;98729.67;;;10.34;100.00
60611;BME280;46439;51.164;13.572;2024-03-29T04:17:52;98727.52;;;10.35;100.00
60611;BME280;46439;51.164;13.572;2024-03-29T04:20:20;98727.55;;;10.34;100.00
60611;BME280;46439;51.164;13.572;2024-03-29T04:22:48;98720.80;;;10.31;100.00
60611;BME280;46439;51.164;13.572;2024-03-29T04:25:17;98735.37;;;10.30;100.00
60611;BME280;46439;51.164;13.572;2024-03-29T04:27:45;98736.72;;;10.31;100.00
60611;BME280;46439;51.164;13.572;2024-03-29T04:30:14;98741.50;;;10.34;100.00
60611;BME280;46439;51.164;13.572;2024-03-29T04:32:45;98743.48;;;10.45;100.00
60611;BME280;46439;51.164;13.572;2024-03-29T04:35:17;98742.17;;;10.45;100.00
60611;BME280;46439;51.164;13.572;2024-03-29T04:37:53;98739.85;;;10.41;100.00
60611;BME280;46439;51.164;13.572;2024-03-29T04:40:26;98738.92;;;10.43;100.00
60611;BME280;46439;51.164;13.572;2024-03-29T04:43:00;98733.07;;;10.42;100.00
60611;BME280;46439;51.164;13.572;2024-03-29T04:45:37;98726.23;;;10.35;100.00
60611;BME280;46439;51.164;13.572;2024-03-29T04:48:10;98725.15;;;10.31;100.00
60611;BME280;46439;51.164;13.572;2024-03-29T04:50:46;98719.05;;;10.30;100.00
60611;BME280;46439;51.164;13.572;2024-03-29T04:53:21;98700.47;;;10.25;100.00
60611;BME280;46439;51.164;13.572;2024-03-29T04:56:05;98696.98;;;10.23;100.00
60611;BME280;46439;51.164;13.572;2024-03-29T04:58:38;98707.23;;;10.23;100.00
60611;BME280;46439;51.164;13.572;2024-03-29T05:01:10;98711.21;;;10.24;100.00
60611;BME280;46439;51.164;13.572;2024-03-29T05:03:41;98715.36;;;10.28;100.00
60611;BME280;46439;51.164;13.572;2024-03-29T05:06:13;98719.21;;;10.33;100.00
60611;BME280;46439;51.164;13.572;2024-03-29T05:08:45;98713.23;;;10.33;100.00
60611;BME280;46439;51.164;13.572;2024-03-29T05:11:17;98709.91;;;10.32;100.00
60611;BME280;46439;51.164;13.572;2024-03-29T05:13:50;98712.70;;;10.33;100.00
60611;BME280;46439;51.164;13.572;2024-03-29T05:16:27;98715.28;;;10.35;100.00
60611;BME280;46439;51.164;13.572;2024-03-29T05:18:58;98720.16;;;10.40;100.00
60611;BME280;46439;51.164;13.572;2024-03-29T05:21:38;98724.85;;;10.48;100.00
60611;BME280;46439;51.164;13.572;2024-03-29T05:24:09;98727.55;;;10.49;100.00
60611;BME280;46439;51.164;13.572;2024-03-29T05:26:39;98721.82;;;10.48;100.00
60611;BME280;46439;51.164;13.572;2024-03-29T05:29:10;98727.34;;;10.51;100.00
60611;BME280;46439;51.164;13.572;2024-03-29T05:31:48;98736.11;;;10.55;100.00
60611;BME280;46439;51.164;13.572;2024-03-29T05:34:17;98728.96;;;10.59;100.00
60611;BME280;46439;51.164;13.572;2024-03-29T05:36:47;98718.05;;;10.60;100.00
60611;BME280;46439;51.164;13.572;2024-03-29T05:39:16;98704.42;;;10.61;100.00
60611;BME280;46439;51.164;13.572;2024-03-29T05:42:00;98708.73;;;10.62;100.00
60611;BME280;46439;51.164;13.572;2024-03-29T05:44:40;98711.44;;;10.61;100.00
60611;BME280;46439;51.164;13.572;2024-03-29T05:47:19;98721.27;;;10.63;100.00
60611;BME280;46439;51.164;13.572;2024-03-29T05:49:51;98726.92;;;10.66;100.00
60611;BME280;46439;51.164;13.572;2024-03-29T05:52:23;98735.80;;;10.67;100.00
60611;BME280;46439;51.164;13.572;2024-03-29T05:54:53;98738.66;;;10.70;100.00
60611;BME280;46439;51.164;13.572;2024-03-29T05:57:23;98747.27;;;10.69;100.00
60611;BME280;46439;51.164;13.572;2024-03-29T06:00:01;98746.16;;;10.71;100.00
60611;BME280;46439;51.164;13.572;2024-03-29T06:02:34;98750.08;;;10.70;100.00
60611;BME280;46439;51.164;13.572;2024-03-29T06:05:07;98755.94;;;10.73;100.00
60611;BME280;46439;51.164;13.572;2024-03-29T06:07:44;98754.73;;;10.74;100.00
60611;BME280;46439;51.164;13.572;2024-03-29T06:10:13;98752.48;;;10.76;100.00
60611;BME280;46439;51.164;13.572;2024-03-29T06:12:44;98749.40;;;10.79;100.00
60611;BME280;46439;51.164;13.572;2024-03-29T06:15:28;98740.48;;;10.82;100.00
60611;BME280;46439;51.164;13.572;2024-03-29T06:18:21;98752.09;;;10.86;100.00
60611;BME280;46439;51.164;13.572;2024-03-29T06:20:55;98767.46;;;10.89;100.00
60611;BME280;46439;51.164;13.572;2024-03-29T06:23:32;98777.08;;;11.01;100.00
60611;BME280;46439;51.164;13.572;2024-03-29T06:26:05;98785.05;;;11.08;100.00
60611;BME280;46439;51.164;13.572;2024-03-29T06:28:37;98783.22;;;11.11;100.00
60611;BME280;46439;51.164;13.572;2024-03-29T06:31:15;98792.35;;;11.09;100.00
60611;BME280;46439;51.164;13.572;2024-03-29T06:33:50;98796.98;;;11.19;100.00
60611;BME280;46439;51.164;13.572;2024-03-29T06:36:23;98795.44;;;11.23;100.00
60611;BME280;46439;51.164;13.572;2024-03-29T06:38:54;98790.28;;;11.25;100.00
60611;BME280;46439;51.164;13.572;2024-03-29T06:41:27;98785.36;;;11.15;100.00
60611;BME280;46439;51.164;13.572;2024-03-29T06:44:01;98784.41;;;11.14;100.00
60611;BME280;46439;51.164;13.572;2024-03-29T06:46:35;98786.52;;;11.19;100.00
60611;BME280;46439;51.164;13.572;2024-03-29T06:49:10;98792.00;;;11.18;100.00
60611;BME280;46439;51.164;13.572;2024-03-29T06:51:41;98789.00;;;11.19;100.00
60611;BME280;46439;51.164;13.572;2024-03-29T06:54:15;98793.71;;;11.18;100.00
60611;BME280;46439;51.164;13.572;2024-03-29T06:56:48;98791.79;;;11.21;100.00
60611;BME280;46439;51.164;13.572;2024-03-29T06:59:20;98787.40;;;11.24;100.00
60611;BME280;46439;51.164;13.572;2024-03-29T07:01:52;98788.48;;;11.25;100.00
60611;BME280;46439;51.164;13.572;2024-03-29T07:04:24;98789.10;;;11.32;100.00
60611;BME280;46439;51.164;13.572;2024-03-29T07:06:58;98795.00;;;11.45;100.00
60611;BME280;46439;51.164;13.572;2024-03-29T07:09:29;98798.66;;;11.46;100.00
60611;BME280;46439;51.164;13.572;2024-03-29T07:12:01;98797.36;;;11.50;100.00
60611;BME280;46439;51.164;13.572;2024-03-29T07:14:31;98795.93;;;11.52;100.00
60611;BME280;46439;51.164;13.572;2024-03-29T07:17:03;98803.77;;;11.59;100.00
60611;BME280;46439;51.164;13.572;2024-03-29T07:19:33;98805.03;;;11.67;100.00
60611;BME280;46439;51.164;13.572;2024-03-29T07:22:03;98797.04;;;11.78;100.00
60611;BME280;46439;51.164;13.572;2024-03-29T07:24:33;98788.96;;;11.81;100.00
60611;BME280;46439;51.164;13.572;2024-03-29T07:27:04;98790.60;;;11.85;100.00
60611;BME280;46439;51.164;13.572;2024-03-29T07:29:40;98792.77;;;12.12;100.00
60611;BME280;46439;51.164;13.572;2024-03-29T07:32:16;98800.17;;;12.20;100.00
60611;BME280;46439;51.164;13.572;2024-03-29T07:34:51;98788.50;;;12.10;100.00
60611;BME280;46439;51.164;13.572;2024-03-29T07:37:27;98786.20;;;12.10;100.00
60611;BME280;46439;51.164;13.572;2024-03-29T07:40:07;98776.91;;;12.15;100.00
60611;BME280;46439;51.164;13.572;2024-03-29T07:42:38;98785.81;;;12.20;100.00
60611;BME280;46439;51.164;13.572;2024-03-29T07:45:12;98786.96;;;12.23;100.00
60611;BME280;46439;51.164;13.572;2024-03-29T07:47:49;98776.58;;;12.33;100.00
60611;BME280;46439;51.164;13.572;2024-03-29T07:50:24;98781.54;;;12.37;100.00
60611;BME280;46439;51.164;13.572;2024-03-29T07:53:01;98785.38;;;12.42;100.00
60611;BME280;46439;51.164;13.572;2024-03-29T07:55:33;98808.45;;;12.52;100.00
60611;BME280;46439;51.164;13.572;2024-03-29T07:58:04;98801.44;;;12.59;100.00
60611;BME280;46439;51.164;13.572;2024-03-29T08:00:41;98810.08;;;12.68;100.00
60611;BME280;46439;51.164;13.572;2024-03-29T08:03:12;98831.23;;;12.76;100.00
60611;BME280;46439;51.164;13.572;2024-03-29T08:05:58;98831.77;;;12.84;100.00
60611;BME280;46439;51.164;13.572;2024-03-29T08:08:43;98829.38;;;12.91;100.00
60611;BME280;46439;51.164;13.572;2024-03-29T08:11:13;98838.03;;;13.09;100.00
60611;BME280;46439;51.164;13.572;2024-03-29T08:13:44;98844.39;;;13.16;100.00
60611;BME280;46439;51.164;13.572;2024-03-29T08:16:13;98832.06;;;13.19;100.00
60611;BME280;46439;51.164;13.572;2024-03-29T08:18:50;98843.74;;;13.22;100.00
60611;BME280;46439;51.164;13.572;2024-03-29T08:21:22;98845.45;;;13.26;100.00
60611;BME280;46439;51.164;13.572;2024-03-29T08:23:52;98855.91;;;13.34;100.00
60611;BME280;46439;51.164;13.572;2024-03-29T08:26:24;98859.35;;;13.40;100.00
60611;BME280;46439;51.164;13.572;2024-03-29T08:28:59;98860.91;;;13.43;100.00
60611;BME280;46439;51.164;13.572;2024-03-29T08:31:33;98870.48;;;13.48;100.00
60611;BME280;46439;51.164;13.572;2024-03-29T08:34:07;98892.11;;;13.56;100.00
60611;BME280;46439;51.164;13.572;2024-03-29T08:36:42;98888.71;;;13.62;100.00
60611;BME280;46439;51.164;13.572;2024-03-29T08:39:12;98879.09;;;13.69;100.00
60611;BME280;46439;51.164;13.572;2024-03-29T08:41:43;98884.32;;;13.71;100.00
60611;BME280;46439;51.164;13.572;2024-03-29T08:44:14;98874.79;;;13.73;100.00
60611;BME280;46439;51.164;13.572;2024-03-29T08:46:50;98877.27;;;13.77;100.00
60611;BME280;46439;51.164;13.572;2024-03-29T08:49:23;98882.55;;;13.83;100.00
60611;BME280;46439;51.164;13.572;2024-03-29T08:51:53;98879.21;;;13.86;100.00
60611;BME280;46439;51.164;13.572;2024-03-29T08:54:27;98881.00;;;13.91;100.00
60611;BME280;46439;51.164;13.572;2024-03-29T08:57:02;98863.80;;;13.97;100.00
60611;BME280;46439;51.164;13.572;2024-03-29T08:59:36;98855.09;;;14.04;100.00
60611;BME280;46439;51.164;13.572;2024-03-29T09:02:09;98848.62;;;14.11;100.00
60611;BME280;46439;51.164;13.572;2024-03-29T09:04:41;98836.29;;;14.21;100.00
60611;BME280;46439;51.164;13.572;2024-03-29T09:07:16;98827.36;;;14.30;100.00
60611;BME280;46439;51.164;13.572;2024-03-29T09:09:55;98827.81;;;14.35;100.00
60611;BME280;46439;51.164;13.572;2024-03-29T09:12:26;98944.17;;;14.90;100.00
60611;BME280;46439;51.164;13.572;2024-03-29T09:15:04;99038.80;;;14.71;100.00
60611;BME280;46439;51.164;13.572;2024-03-29T09:17:48;98968.35;;;14.65;100.00
60611;BME280;46439;51.164;13.572;2024-03-29T09:20:29;98900.39;;;14.66;100.00
60611;BME280;46439;51.164;13.572;2024-03-29T09:22:59;98858.05;;;14.69;100.00
60611;BME280;46439;51.164;13.572;2024-03-29T09:25:39;98840.75;;;14.74;100.00
60611;BME280;46439;51.164;13.572;2024-03-29T09:28:12;98823.12;;;14.87;100.00
60611;BME280;46439;51.164;13.572;2024-03-29T09:30:56;98814.53;;;14.96;100.00
60611;BME280;46439;51.164;13.572;2024-03-29T09:33:36;98929.77;;;15.54;100.00
60611;BME280;46439;51.164;13.572;2024-03-29T09:36:11;98915.27;;;15.45;100.00
60611;BME280;46439;51.164;13.572;2024-03-29T09:38:46;98817.39;;;15.52;100.00
60611;BME280;46439;51.164;13.572;2024-03-29T09:41:18;98766.48;;;15.58;100.00
60611;BME280;46439;51.164;13.572;2024-03-29T09:43:50;98739.53;;;15.65;100.00
60611;BME280;46439;51.164;13.572;2024-03-29T09:46:31;98742.95;;;15.89;100.00
60611;BME280;46439;51.164;13.572;2024-03-29T09:49:06;98909.54;;;16.35;100.00
60611;BME280;46439;51.164;13.572;2024-03-29T09:51:38;98751.76;;;16.29;100.00
60611;BME280;46439;51.164;13.572;2024-03-29T09:54:12;98682.98;;;16.36;100.00
60611;BME280;46439;51.164;13.572;2024-03-29T09:56:49;98664.48;;;16.46;100.00
60611;BME280;46439;51.164;13.572;2024-03-29T09:59:20;98660.15;;;16.62;100.00
60611;BME280;46439;51.164;13.572;2024-03-29T10:01:51;98691.55;;;16.87;100.00
60611;BME280;46439;51.164;13.572;2024-03-29T10:04:25;98833.73;;;17.21;100.00
60611;BME280;46439;51.164;13.572;2024-03-29T10:07:00;98689.48;;;17.06;100.00
60611;BME280;46439;51.164;13.572;2024-03-29T10:09:35;98659.59;;;17.11;100.00
60611;BME280;46439;51.164;13.572;2024-03-29T10:12:07;98673.16;;;17.14;100.00
60611;BME280;46439;51.164;13.572;2024-03-29T10:14:46;98670.80;;;17.12;100.00
60611;BME280;46439;51.164;13.572;2024-03-29T10:17:27;98729.88;;;17.30;100.00
60611;BME280;46439;51.164;13.572;2024-03-29T10:20:04;98797.92;;;17.15;100.00
60611;BME280;46439;51.164;13.572;2024-03-29T10:22:42;98677.21;;;16.98;100.00
60611;BME280;46439;51.164;13.572;2024-03-29T10:25:14;98669.63;;;16.89;100.00
60611;BME280;46439;51.164;13.572;2024-03-29T10:27:47;98656.46;;;16.89;100.00
60611;BME280;46439;51.164;13.572;2024-03-29T10:30:29;98650.73;;;16.95;100.00
60611;BME280;46439;51.164;13.572;2024-03-29T10:33:02;98638.39;;;16.94;100.00
60611;BME280;46439;51.164;13.572;2024-03-29T10:35:35;98627.96;;;16.98;100.00
60611;BME280;46439;51.164;13.572;2024-03-29T10:38:08;98750.05;;;17.59;100.00
60611;BME280;46439;51.164;13.572;2024-03-29T10:40:39;98694.63;;;17.47;100.00
60611;BME280;46439;51.164;13.572;2024-03-29T10:43:13;98625.68;;;17.43;100.00
60611;BME280;46439;51.164;13.572;2024-03-29T10:45:48;98607.44;;;17.42;100.00
60611;BME280;46439;51.164;13.572;2024-03-29T10:48:26;98610.28;;;17.39;100.00
60611;BME280;46439;51.164;13.572;2024-03-29T10:50:58;98607.80;;;17.40;100.00
60611;BME280;46439;51.164;13.572;2024-03-29T10:53:31;98616.80;;;17.42;100.00
60611;BME280;46439;51.164;13.572;2024-03-29T10:56:09;98621.27;;;17.49;100.00
60611;BME280;46439;51.164;13.572;2024-03-29T10:58:48;98630.09;;;17.54;100.00
60611;BME280;46439;51.164;13.572;2024-03-29T11:01:21;98731.39;;;17.78;100.00
60611;BME280;46439;51.164;13.572;2024-03-29T11:03:58;98645.29;;;17.62;100.00
60611;BME280;46439;51.164;13.572;2024-03-29T11:06:37;98633.98;;;17.60;100.00
60611;BME280;46439;51.164;13.572;2024-03-29T11:09:18;98623.64;;;17.57;100.00
60611;BME280;46439;51.164;13.572;2024-03-29T11:11:52;98622.08;;;17.50;100.00
60611;BME280;46439;51.164;13.572;2024-03-29T11:14:31;98622.46;;;17.44;100.00
60611;BME280;46439;51.164;13.572;2024-03-29T11:17:08;98624.31;;;17.54;100.00
60611;BME280;46439;51.164;13.572;2024-03-29T11:19:40;98629.89;;;17.55;100.00
60611;BME280;46439;51.164;13.572;2024-03-29T11:22:11;98633.73;;;17.63;100.00
60611;BME280;46439;51.164;13.572;2024-03-29T11:24:43;98648.74;;;17.83;100.00
60611;BME280;46439;51.164;13.572;2024-03-29T11:27:19;98874.46;;;18.05;100.00
60611;BME280;46439;51.164;13.572;2024-03-29T11:30:02;98823.77;;;17.89;100.00
60611;BME280;46439;51.164;13.572;2024-03-29T11:32:43;98751.43;;;17.83;100.00
60611;BME280;46439;51.164;13.572;2024-03-29T11:35:29;98714.46;;;17.83;100.00
60611;BME280;46439;51.164;13.572;2024-03-29T11:38:11;98699.88;;;17.83;100.00
60611;BME280;46439;51.164;13.572;2024-03-29T11:41:02;98735.44;;;17.98;100.00
60611;BME280;46439;51.164;13.572;2024-03-29T11:43:38;98836.14;;;18.32;100.00
60611;BME280;46439;51.164;13.572;2024-03-29T11:46:13;98788.98;;;18.24;100.00
60611;BME280;46439;51.164;13.572;2024-03-29T11:48:44;98729.75;;;18.31;100.00
60611;BME280;46439;51.164;13.572;2024-03-29T11:51:27;98775.80;;;18.46;100.00
60611;BME280;46439;51.164;13.572;2024-03-29T11:54:02;98790.38;;;18.46;100.00
60611;BME280;46439;51.164;13.572;2024-03-29T11:56:40;98809.52;;;18.56;100.00
60611;BME280;46439;51.164;13.572;2024-03-29T11:59:18;98778.93;;;18.55;100.00
60611;BME280;46439;51.164;13.572;2024-03-29T12:02:01;98723.10;;;18.65;100.00
60611;BME280;46439;51.164;13.572;2024-03-29T12:04:37;98667.11;;;18.64;100.00
60611;BME280;46439;51.164;13.572;2024-03-29T12:07:09;98622.72;;;18.72;100.00
60611;BME280;46439;51.164;13.572;2024-03-29T12:09:40;98604.82;;;18.77;100.00
60611;BME280;46439;51.164;13.572;2024-03-29T12:12:12;98573.55;;;18.86;100.00
60611;BME280;46439;51.164;13.572;2024-03-29T12:14:49;98568.63;;;18.85;100.00
60611;BME280;46439;51.164;13.572;2024-03-29T12:17:20;98573.34;;;18.87;100.00
60611;BME280;46439;51.164;13.572;2024-03-29T12:19:53;98598.23;;;18.81;100.00
60611;BME280;46439;51.164;13.572;2024-03-29T12:22:32;98620.86;;;18.80;100.00
60611;BME280;46439;51.164;13.572;2024-03-29T12:25:04;98608.45;;;18.86;100.00
60611;BME280;46439;51.164;13.572;2024-03-29T12:27:35;98601.23;;;18.86;100.00
60611;BME280;46439;51.164;13.572;2024-03-29T12:30:08;98547.58;;;19.05;100.00
60611;BME280;46439;51.164;13.572;2024-03-29T12:32:43;98490.49;;;19.09;100.00
60611;BME280;46439;51.164;13.572;2024-03-29T12:35:22;98431.70;;;19.15;100.00
60611;BME280;46439;51.164;13.572;2024-03-29T12:38:02;98367.80;;;19.15;100.00
60611;BME280;46439;51.164;13.572;2024-03-29T12:40:40;98350.77;;;18.94;100.00
60611;BME280;46439;51.164;13.572;2024-03-29T12:43:14;98417.02;;;18.76;100.00
60611;BME280;46439;51.164;13.572;2024-03-29T12:45:48;98451.63;;;18.64;100.00
60611;BME280;46439;51.164;13.572;2024-03-29T12:48:20;98446.58;;;18.55;100.00
60611;BME280;46439;51.164;13.572;2024-03-29T12:51:04;98426.63;;;18.41;100.00
60611;BME280;46439;51.164;13.572;2024-03-29T12:53:39;98393.14;;;18.42;100.00
60611;BME280;46439;51.164;13.572;2024-03-29T12:56:14;98364.60;;;18.38;100.00
60611;BME280;46439;51.164;13.572;2024-03-29T12:58:46;98311.45;;;18.36;100.00
60611;BME280;46439;51.164;13.572;2024-03-29T13:01:15;98207.20;;;18.47;100.00
60611;BME280;46439;51.164;13.572;2024-03-29T13:03:46;98117.36;;;18.50;100.00
60611;BME280;46439;51.164;13.572;2024-03-29T13:06:18;98072.27;;;18.51;100.00
60611;BME280;46439;51.164;13.572;2024-03-29T13:08:53;98017.79;;;18.64;100.00